createdAt,value
2018-03-04T00:00:01.578Z,42.63
2018-03-04T00:02:29.337Z,40.73
2018-03-04T00:04:57.052Z,39.10
2018-03-04T00:07:24.833Z,42.10
2018-03-04T00:09:52.595Z,40.67
2018-03-04T00:12:20.308Z,40.60
2018-03-04T00:14:48.152Z,38.50
2018-03-04T00:17:15.873Z,39.50
2018-03-04T00:19:43.549Z,36.17
2018-03-04T00:22:11.325Z,43.97
2018-03-04T00:24:39.072Z,38.23
2018-03-04T00:27:06.830Z,42.00
2018-03-04T00:29:34.591Z,38.83
2018-03-04T00:32:02.287Z,42.67
2018-03-04T00:34:30.054Z,43.00
2018-03-04T00:36:57.838Z,44.47
2018-03-04T00:39:25.635Z,44.17
2018-03-04T00:41:53.288Z,38.90
2018-03-04T00:44:21.052Z,40.73
2018-03-04T00:46:48.807Z,41.27
2018-03-04T00:49:16.484Z,38.67
2018-03-04T00:51:44.133Z,39.70
2018-03-04T00:54:11.885Z,39.10
2018-03-04T00:56:39.582Z,41.70
2018-03-04T00:59:07.240Z,42.40
2018-03-04T01:01:35.003Z,38.97
2018-03-04T01:04:02.674Z,40.80
2018-03-04T01:06:30.409Z,39.90
2018-03-04T01:08:58.070Z,35.77
2018-03-04T01:11:25.764Z,37.87
2018-03-04T01:13:53.608Z,42.43
2018-03-04T01:16:21.332Z,41.50
2018-03-04T01:18:49.071Z,43.27
2018-03-04T01:21:16.787Z,44.23
2018-03-04T01:23:44.514Z,41.53
2018-03-04T01:26:12.214Z,40.40
2018-03-04T01:28:40.024Z,41.30
2018-03-04T01:31:07.804Z,41.10
2018-03-04T01:33:35.517Z,44.30
2018-03-04T01:36:03.253Z,41.80
2018-03-04T01:38:31.007Z,45.00
2018-03-04T01:40:58.716Z,42.67
2018-03-04T01:43:27.270Z,43.50
2018-03-04T01:45:54.985Z,39.13
2018-03-04T01:48:22.683Z,43.50
2018-03-04T01:50:50.412Z,41.90
2018-03-04T01:53:18.180Z,41.07
2018-03-04T01:55:45.930Z,41.20
2018-03-04T01:58:13.672Z,42.90
2018-03-04T02:00:41.403Z,42.63
2018-03-04T02:03:09.167Z,43.97
2018-03-04T02:05:36.828Z,42.77
2018-03-04T02:08:04.570Z,44.77
2018-03-04T02:10:32.329Z,44.77
2018-03-04T02:13:00.039Z,44.23
2018-03-04T02:15:27.765Z,45.83
2018-03-04T02:17:56.043Z,40.97
2018-03-04T02:20:23.914Z,43.50
2018-03-04T02:22:51.583Z,41.20
2018-03-04T02:25:19.294Z,40.93
2018-03-04T02:27:47.034Z,42.00
2018-03-04T02:30:14.698Z,44.13
2018-03-04T02:32:42.363Z,41.63
2018-03-04T02:35:10.120Z,42.97
2018-03-04T02:37:37.939Z,44.33
2018-03-04T02:40:05.605Z,42.87
2018-03-04T02:42:33.274Z,43.17
2018-03-04T02:45:00.987Z,41.87
2018-03-04T02:47:28.686Z,42.83
2018-03-04T02:49:56.410Z,42.47
2018-03-04T02:52:26.675Z,42.37
2018-03-04T02:54:54.344Z,41.07
2018-03-04T02:57:22.076Z,43.70
2018-03-04T02:59:49.798Z,41.30
2018-03-04T03:02:17.548Z,38.50
2018-03-04T03:04:45.224Z,40.80
2018-03-04T03:07:12.899Z,42.57
2018-03-04T03:09:40.618Z,41.27
2018-03-04T03:12:08.375Z,40.30
2018-03-04T03:14:36.096Z,41.47
2018-03-04T03:17:03.826Z,43.93
2018-03-04T03:19:31.594Z,42.50
2018-03-04T03:21:59.339Z,41.67
2018-03-04T03:24:27.040Z,42.87
2018-03-04T03:26:54.760Z,42.50
2018-03-04T03:29:22.458Z,41.10
2018-03-04T03:31:50.187Z,40.63
2018-03-04T03:34:17.880Z,40.13
2018-03-04T03:36:45.578Z,42.13
2018-03-04T03:39:13.307Z,42.80
2018-03-04T03:41:41.050Z,41.80
2018-03-04T03:44:08.719Z,44.00
2018-03-04T03:46:36.448Z,42.87
2018-03-04T03:49:04.141Z,43.37
2018-03-04T03:51:31.873Z,40.73
2018-03-04T03:53:59.626Z,45.07
2018-03-04T03:56:27.303Z,45.57
2018-03-04T03:58:55.086Z,43.80
2018-03-04T04:01:22.764Z,44.33
2018-03-04T04:03:50.551Z,42.07
2018-03-04T04:06:18.240Z,44.80
2018-03-04T04:08:45.921Z,44.97
2018-03-04T04:11:13.666Z,42.83
2018-03-04T04:13:41.399Z,42.23
2018-03-04T04:16:09.089Z,44.90
2018-03-04T04:18:36.820Z,46.00
2018-03-04T04:21:04.554Z,43.93
2018-03-04T04:23:32.310Z,41.10
2018-03-04T04:25:59.979Z,43.80
2018-03-04T04:28:27.720Z,43.77
2018-03-04T04:30:55.443Z,47.73
2018-03-04T04:33:23.225Z,45.43
2018-03-04T04:35:50.944Z,43.60
2018-03-04T04:38:18.693Z,45.97
2018-03-04T04:40:46.378Z,43.93
2018-03-04T04:43:14.076Z,43.00
2018-03-04T04:45:41.863Z,44.17
2018-03-04T04:48:09.558Z,45.00
2018-03-04T04:50:37.262Z,46.07
2018-03-04T04:53:04.926Z,44.00
2018-03-04T04:55:32.644Z,46.53
2018-03-04T04:58:00.413Z,48.17
2018-03-04T05:00:28.140Z,43.77
2018-03-04T05:02:55.897Z,43.90
2018-03-04T05:05:23.593Z,45.10
2018-03-04T05:07:51.317Z,46.73
2018-03-04T05:10:19.008Z,50.60
2018-03-04T05:12:46.760Z,46.53
2018-03-04T05:15:14.491Z,49.73
2018-03-04T05:17:42.263Z,47.10
2018-03-04T05:20:09.967Z,48.53
2018-03-04T05:22:37.684Z,49.90
2018-03-04T05:25:05.417Z,49.33
2018-03-04T05:27:33.392Z,50.33
2018-03-04T05:30:01.119Z,47.40
2018-03-04T05:32:28.864Z,44.70
2018-03-04T05:34:56.694Z,49.37
2018-03-04T05:37:24.415Z,48.93
2018-03-04T05:39:52.128Z,45.50
2018-03-04T05:42:19.850Z,46.10
2018-03-04T05:44:47.611Z,46.97
2018-03-04T05:47:15.351Z,50.07
2018-03-04T05:49:43.104Z,48.57
2018-03-04T05:52:10.809Z,50.00
2018-03-04T05:54:38.479Z,47.40
2018-03-04T05:57:06.221Z,51.03
2018-03-04T05:59:33.949Z,50.77
2018-03-04T06:02:01.701Z,53.30
2018-03-04T06:04:29.398Z,49.83
2018-03-04T06:06:57.172Z,49.03
2018-03-04T06:09:24.858Z,49.37
2018-03-04T06:11:52.676Z,51.50
2018-03-04T06:14:20.470Z,51.37
2018-03-04T06:16:48.227Z,53.03
2018-03-04T06:19:15.896Z,50.47
2018-03-04T06:21:43.642Z,49.93
2018-03-04T06:24:11.318Z,50.33
2018-03-04T06:26:39.116Z,50.17
2018-03-04T06:29:06.912Z,47.97
2018-03-04T06:31:34.600Z,48.97
2018-03-04T06:34:02.356Z,48.33
2018-03-04T06:36:30.109Z,48.30
2018-03-04T06:38:57.846Z,48.40
2018-03-04T06:41:25.587Z,46.40
2018-03-04T06:43:53.363Z,49.73
2018-03-04T06:46:21.073Z,49.70
2018-03-04T06:48:48.772Z,50.53
2018-03-04T06:51:16.656Z,51.60
2018-03-04T06:53:44.357Z,53.60
2018-03-04T06:56:12.094Z,52.50
2018-03-04T06:58:39.807Z,50.80
2018-03-04T07:01:07.538Z,49.13
2018-03-04T07:03:35.322Z,48.80
2018-03-04T07:06:03.077Z,46.87
2018-03-04T07:08:30.850Z,51.97
2018-03-04T07:10:58.628Z,49.23
2018-03-04T07:13:26.421Z,54.60
2018-03-04T07:15:54.140Z,47.53
2018-03-04T07:18:21.908Z,49.07
2018-03-04T07:20:49.663Z,50.03
2018-03-04T07:23:17.451Z,54.23
2018-03-04T07:25:45.234Z,49.27
2018-03-04T07:28:13.020Z,49.80
2018-03-04T07:30:40.910Z,45.87
2018-03-04T07:33:08.694Z,47.20
2018-03-04T07:35:36.501Z,47.60
2018-03-04T07:38:04.259Z,47.90
2018-03-04T07:40:32.078Z,53.90
2018-03-04T07:43:01.005Z,52.90
2018-03-04T07:45:29.486Z,48.77
2018-03-04T07:47:57.269Z,48.53
2018-03-04T07:50:24.955Z,49.93
2018-03-04T07:52:53.359Z,43.27
2018-03-04T07:55:21.097Z,46.93
2018-03-04T07:57:48.864Z,50.20
2018-03-04T08:00:16.594Z,50.70
2018-03-04T08:02:44.840Z,46.90
2018-03-04T08:05:12.600Z,49.57
2018-03-04T08:07:40.462Z,49.30
2018-03-04T08:10:08.255Z,46.40
2018-03-04T08:12:36.009Z,49.80
2018-03-04T08:15:03.814Z,47.87
2018-03-04T08:17:32.659Z,48.83
2018-03-04T08:20:00.382Z,49.13
2018-03-04T08:22:28.191Z,53.00
2018-03-04T08:25:07.590Z,51.70
2018-03-04T08:27:47.962Z,47.47
2018-03-04T08:30:15.922Z,48.90
2018-03-04T08:32:43.890Z,41.80
2018-03-04T08:35:11.960Z,42.37
2018-03-04T08:37:40.656Z,41.90
2018-03-04T08:40:08.539Z,46.30
2018-03-04T08:42:36.334Z,41.57
2018-03-04T08:45:04.069Z,42.43
2018-03-04T08:47:31.824Z,41.20
2018-03-04T08:49:59.838Z,42.30
2018-03-04T08:52:27.600Z,41.10
2018-03-04T08:54:56.361Z,42.77
2018-03-04T08:57:24.161Z,42.40
2018-03-04T08:59:51.981Z,42.63
2018-03-04T09:02:20.028Z,45.30
2018-03-04T09:04:48.117Z,42.90
2018-03-04T09:07:16.053Z,43.67
2018-03-04T09:09:44.146Z,48.50
2018-03-04T09:12:12.036Z,43.47
2018-03-04T09:14:39.953Z,43.87
2018-03-04T09:17:08.892Z,43.67
2018-03-04T09:19:37.441Z,45.70
2018-03-04T09:22:05.305Z,45.10
2018-03-04T09:24:33.174Z,44.37
2018-03-04T09:27:02.228Z,44.60
2018-03-04T09:29:29.961Z,44.50
2018-03-04T09:31:58.693Z,45.47
2018-03-04T09:34:26.463Z,46.17
2018-03-04T09:36:54.131Z,41.37
2018-03-04T09:39:21.911Z,43.97
2018-03-04T09:41:49.616Z,46.50
2018-03-04T09:44:17.443Z,47.60
2018-03-04T09:46:45.133Z,43.53
2018-03-04T09:49:12.892Z,43.20
2018-03-04T09:51:41.371Z,41.70
2018-03-04T09:54:09.094Z,39.50
2018-03-04T09:56:36.868Z,39.73
2018-03-04T09:59:04.606Z,40.03
2018-03-04T10:01:32.634Z,41.37
2018-03-04T10:04:00.356Z,38.17
2018-03-04T10:06:28.232Z,42.53
2018-03-04T10:08:55.931Z,40.07
2018-03-04T10:11:23.672Z,40.50
2018-03-04T10:13:51.402Z,40.40
2018-03-04T10:16:19.114Z,39.43
2018-03-04T10:18:46.876Z,39.40
2018-03-04T10:21:14.644Z,40.67
2018-03-04T10:23:42.381Z,36.20
2018-03-04T10:26:10.142Z,35.77
2018-03-04T10:28:37.836Z,39.07
2018-03-04T10:31:05.603Z,36.97
2018-03-04T10:33:33.363Z,37.70
2018-03-04T10:36:01.113Z,38.03
2018-03-04T10:38:28.825Z,37.40
2018-03-04T10:40:56.623Z,35.70
2018-03-04T10:43:24.320Z,36.70
2018-03-04T10:45:52.778Z,36.77
2018-03-04T10:48:20.474Z,36.03
2018-03-04T10:50:48.229Z,39.57
2018-03-04T10:53:16.116Z,37.27
2018-03-04T10:55:43.874Z,33.77
2018-03-04T10:58:11.604Z,36.03
2018-03-04T11:00:44.826Z,34.33
2018-03-04T11:03:18.945Z,35.53
2018-03-04T11:05:46.752Z,35.43
2018-03-04T11:08:14.508Z,33.17
2018-03-04T11:10:42.214Z,31.37
2018-03-04T11:13:09.958Z,33.50
2018-03-04T11:15:37.674Z,35.23
2018-03-04T11:18:05.428Z,33.33
2018-03-04T11:20:33.152Z,33.03
2018-03-04T11:23:00.906Z,33.03
2018-03-04T11:25:28.682Z,35.60
2018-03-04T11:27:56.405Z,33.07
2018-03-04T11:30:24.182Z,35.40
2018-03-04T11:32:51.898Z,35.30
2018-03-04T11:35:19.594Z,33.07
2018-03-04T11:37:47.391Z,33.37
2018-03-04T11:40:15.124Z,30.87
2018-03-04T11:42:42.863Z,31.40
2018-03-04T11:45:11.390Z,32.20
2018-03-04T11:47:39.334Z,29.67
2018-03-04T11:50:07.078Z,27.50
2018-03-04T11:52:34.873Z,27.67
2018-03-04T11:55:02.661Z,30.20
2018-03-04T11:57:30.445Z,27.10
2018-03-04T11:59:58.135Z,25.43
2018-03-04T12:02:25.847Z,23.63
2018-03-04T12:04:53.617Z,24.70
2018-03-04T12:07:21.378Z,25.27
2018-03-04T12:09:49.117Z,23.33
2018-03-04T12:12:16.824Z,25.97
2018-03-04T12:14:44.748Z,22.30
2018-03-04T12:17:12.479Z,19.80
2018-03-04T12:19:40.223Z,19.33
2018-03-04T12:22:07.938Z,18.80
2018-03-04T12:24:35.755Z,17.90
2018-03-04T12:27:03.481Z,15.87
2018-03-04T12:29:31.250Z,15.83
2018-03-04T12:31:59.062Z,13.00
2018-03-04T12:34:26.811Z,13.40
2018-03-04T12:36:55.787Z,14.43
2018-03-04T12:39:23.573Z,15.33
2018-03-04T12:41:51.385Z,14.40
2018-03-04T12:44:19.105Z,18.07
2018-03-04T12:46:46.794Z,18.27
2018-03-04T12:49:14.569Z,17.40
2018-03-04T12:51:42.317Z,17.83
2018-03-04T12:54:10.068Z,17.27
2018-03-04T12:56:39.049Z,17.33
2018-03-04T12:59:06.870Z,18.03
2018-03-04T13:01:34.641Z,17.20
2018-03-04T13:04:02.378Z,17.30
2018-03-04T13:06:30.082Z,16.87
2018-03-04T13:08:57.903Z,18.00
2018-03-04T13:11:25.681Z,18.47
2018-03-04T13:13:53.441Z,18.60
2018-03-04T13:16:21.144Z,16.23
2018-03-04T13:18:48.947Z,14.37
2018-03-04T13:21:16.658Z,14.90
2018-03-04T13:23:44.328Z,15.53
2018-03-04T13:26:12.095Z,14.77
2018-03-04T13:28:40.618Z,14.50
2018-03-04T13:31:08.395Z,13.20
2018-03-04T13:33:36.086Z,15.27
2018-03-04T13:36:03.960Z,13.20
2018-03-04T13:38:31.730Z,11.10
2018-03-04T13:40:59.493Z,12.00
2018-03-04T13:43:27.260Z,11.33
2018-03-04T13:45:54.996Z,9.30
2018-03-04T13:48:22.703Z,11.87
2018-03-04T13:50:50.446Z,11.23
2018-03-04T13:53:18.134Z,9.67
2018-03-04T13:55:45.891Z,11.30
2018-03-04T13:58:13.617Z,9.97
2018-03-04T14:00:41.366Z,10.93
2018-03-04T14:03:09.079Z,10.07
2018-03-04T14:05:36.748Z,9.17
2018-03-04T14:08:04.522Z,11.80
2018-03-04T14:10:32.210Z,9.43
2018-03-04T14:12:59.976Z,9.67
2018-03-04T14:15:27.707Z,11.20
2018-03-04T14:17:55.410Z,11.63
2018-03-04T14:20:23.184Z,11.33
2018-03-04T14:22:50.867Z,10.57
2018-03-04T14:25:18.642Z,9.90
2018-03-04T14:27:46.377Z,13.00
2018-03-04T14:30:14.067Z,13.60
2018-03-04T14:32:41.869Z,27.33
2018-03-04T14:35:09.555Z,18.80
2018-03-04T14:37:37.296Z,20.40
2018-03-04T14:40:05.839Z,18.40
2018-03-04T14:42:33.532Z,23.67
2018-03-04T14:45:01.282Z,24.87
2018-03-04T14:47:29.126Z,22.60
2018-03-04T14:49:56.823Z,30.13
2018-03-04T14:52:25.870Z,26.20
2018-03-04T14:54:53.550Z,16.17
2018-03-04T14:57:21.309Z,25.87
2018-03-04T14:59:49.082Z,10.17
2018-03-04T15:02:16.789Z,13.70
2018-03-04T15:04:44.560Z,15.13
2018-03-04T15:07:13.599Z,12.50
2018-03-04T15:09:41.346Z,10.57
2018-03-04T15:12:09.116Z,10.67
2018-03-04T15:14:36.834Z,15.30
2018-03-04T15:17:04.590Z,12.77
2018-03-04T15:19:32.278Z,16.90
2018-03-04T15:22:00.030Z,12.20
2018-03-04T15:24:27.806Z,18.70
2018-03-04T15:26:55.585Z,11.83
2018-03-04T15:29:23.294Z,10.93
2018-03-04T15:31:51.062Z,11.80
2018-03-04T15:34:18.823Z,10.60
2018-03-04T15:36:46.587Z,12.20
2018-03-04T15:39:14.349Z,10.00
2018-03-04T15:41:42.044Z,9.20
2018-03-04T15:44:09.837Z,10.70
2018-03-04T15:46:37.538Z,9.53
2018-03-04T15:49:05.253Z,8.90
2018-03-04T15:51:32.995Z,9.90
2018-03-04T15:54:00.770Z,9.03
2018-03-04T15:56:28.487Z,9.07
2018-03-04T15:58:56.212Z,10.60
2018-03-04T16:01:23.952Z,11.97
2018-03-04T16:03:51.656Z,10.60
2018-03-04T16:06:19.410Z,12.00
2018-03-04T16:08:47.097Z,11.80
2018-03-04T16:11:14.793Z,9.47
2018-03-04T16:13:42.559Z,8.37
2018-03-04T16:16:10.361Z,10.40
2018-03-04T16:18:39.066Z,9.13
2018-03-04T16:21:07.015Z,8.23
2018-03-04T16:23:34.774Z,10.70
2018-03-04T16:26:02.463Z,9.40
2018-03-04T16:28:30.216Z,10.27
2018-03-04T16:30:57.940Z,12.53
2018-03-04T16:33:25.687Z,9.57
2018-03-04T16:35:53.375Z,9.40
2018-03-04T16:38:21.130Z,8.83
2018-03-04T16:40:48.904Z,10.63
2018-03-04T16:43:16.607Z,8.57
2018-03-04T16:45:44.362Z,7.50
2018-03-04T16:48:12.073Z,9.07
2018-03-04T16:50:39.879Z,9.30
2018-03-04T16:53:07.553Z,9.63
2018-03-04T16:55:35.313Z,9.20
2018-03-04T16:58:02.965Z,8.03
2018-03-04T17:00:30.684Z,10.13
2018-03-04T17:02:58.506Z,10.77
2018-03-04T17:05:26.297Z,10.20
2018-03-04T17:07:54.061Z,10.03
2018-03-04T17:10:21.807Z,11.03
2018-03-04T17:12:49.646Z,9.67
2018-03-04T17:15:17.390Z,7.47
2018-03-04T17:17:45.158Z,7.73
2018-03-04T17:20:12.855Z,8.80
2018-03-04T17:22:40.593Z,8.67
2018-03-04T17:25:08.390Z,7.37
2018-03-04T17:27:36.163Z,10.13
2018-03-04T17:30:03.901Z,7.90
2018-03-04T17:32:31.664Z,7.77
2018-03-04T17:34:59.448Z,8.30
2018-03-04T17:37:27.286Z,8.30
2018-03-04T17:39:54.929Z,8.30
2018-03-04T17:42:22.660Z,10.13
2018-03-04T17:44:50.442Z,8.90
2018-03-04T17:47:18.133Z,10.23
2018-03-04T17:49:45.878Z,9.17
2018-03-04T17:52:13.653Z,8.33
2018-03-04T17:54:41.491Z,8.50
2018-03-04T17:57:09.225Z,9.03
2018-03-04T17:59:37.494Z,9.97
2018-03-04T18:02:05.849Z,9.30
2018-03-04T18:04:33.512Z,9.87
2018-03-04T18:07:01.278Z,7.70
2018-03-04T18:09:28.988Z,9.23
2018-03-04T18:11:56.686Z,10.53
2018-03-04T18:14:24.405Z,8.00
2018-03-04T18:16:52.115Z,8.33
2018-03-04T18:19:19.883Z,8.17
2018-03-04T18:21:47.642Z,9.30
2018-03-04T18:24:15.417Z,9.50
2018-03-04T18:26:43.174Z,8.70
2018-03-04T18:29:10.976Z,8.73
2018-03-04T18:31:38.656Z,8.87
2018-03-04T18:34:06.407Z,9.03
2018-03-04T18:36:34.113Z,10.07
2018-03-04T18:39:01.939Z,9.40
2018-03-04T18:41:29.665Z,9.80
2018-03-04T18:43:57.599Z,8.70
2018-03-04T18:46:25.384Z,8.97
2018-03-04T18:48:54.217Z,9.80
2018-03-04T18:51:22.021Z,9.70
2018-03-04T18:53:49.863Z,8.37
2018-03-04T18:56:17.573Z,9.37
2018-03-04T18:58:45.463Z,9.80
2018-03-04T19:01:13.318Z,9.37
2018-03-04T19:03:41.134Z,9.63
2018-03-04T19:06:08.869Z,9.67
2018-03-04T19:08:36.626Z,10.93
2018-03-04T19:11:04.659Z,9.27
2018-03-04T19:13:32.433Z,9.67
2018-03-04T19:16:00.247Z,8.63
2018-03-04T19:18:28.006Z,9.43
2018-03-04T19:20:55.796Z,9.73
2018-03-04T19:23:23.578Z,8.20
2018-03-04T19:25:51.381Z,9.50
2018-03-04T19:28:19.187Z,10.00
2018-03-04T19:30:46.961Z,9.60
2018-03-04T19:33:14.642Z,9.70
2018-03-04T19:35:42.412Z,9.33
2018-03-04T19:38:10.246Z,10.67
2018-03-04T19:40:38.208Z,8.53
2018-03-04T19:43:06.661Z,9.73
2018-03-04T19:45:34.443Z,9.33
2018-03-04T19:48:02.184Z,9.00
2018-03-04T19:50:30.036Z,8.30
2018-03-04T19:52:58.860Z,9.70
2018-03-04T19:55:26.557Z,8.57
2018-03-04T19:57:54.477Z,7.63
2018-03-04T20:00:22.269Z,8.90
2018-03-04T20:02:50.123Z,8.80
2018-03-04T20:05:17.880Z,8.03
2018-03-04T20:07:45.573Z,9.10
2018-03-04T20:10:13.399Z,9.90
2018-03-04T20:12:41.146Z,7.83
2018-03-04T20:15:09.025Z,7.67
2018-03-04T20:17:37.514Z,10.50
2018-03-04T20:20:05.225Z,9.83
2018-03-04T20:22:32.985Z,8.13
2018-03-04T20:25:00.747Z,10.97
2018-03-04T20:27:28.583Z,9.27
2018-03-04T20:29:56.566Z,9.20
2018-03-04T20:32:24.262Z,7.83
2018-03-04T20:34:52.097Z,7.90
2018-03-04T20:37:19.784Z,8.13
2018-03-04T20:39:47.689Z,7.50
2018-03-04T20:42:15.582Z,7.97
2018-03-04T20:44:43.417Z,9.27
2018-03-04T20:47:11.116Z,9.30
2018-03-04T20:49:38.920Z,8.63
2018-03-04T20:52:06.619Z,10.10
2018-03-04T20:54:34.563Z,10.10
2018-03-04T20:57:02.340Z,8.83
2018-03-04T20:59:30.018Z,9.50
2018-03-04T21:01:57.777Z,7.83
2018-03-04T21:04:25.523Z,10.43
2018-03-04T21:06:53.740Z,10.80
2018-03-04T21:09:21.617Z,10.37
2018-03-04T21:11:49.352Z,10.13
2018-03-04T21:14:17.495Z,12.07
2018-03-04T21:16:45.195Z,14.07
2018-03-04T21:19:12.909Z,10.90
2018-03-04T21:21:40.658Z,11.13
2018-03-04T21:24:08.379Z,9.50
2018-03-04T21:26:36.115Z,9.33
2018-03-04T21:29:03.912Z,10.13
2018-03-04T21:31:31.610Z,10.80
2018-03-04T21:33:59.389Z,9.80
2018-03-04T21:36:27.179Z,10.37
2018-03-04T21:38:54.919Z,10.60
2018-03-04T21:41:22.645Z,9.63
2018-03-04T21:43:50.356Z,11.63
2018-03-04T21:46:18.116Z,9.10
2018-03-04T21:48:45.795Z,8.23
2018-03-04T21:51:13.475Z,8.63
2018-03-04T21:53:42.218Z,8.70
2018-03-04T21:56:10.306Z,10.10
2018-03-04T21:58:38.155Z,8.60
2018-03-04T22:01:06.141Z,9.57
2018-03-04T22:03:34.245Z,10.33
2018-03-04T22:06:02.151Z,8.73
2018-03-04T22:08:30.019Z,8.70
2018-03-04T22:10:57.986Z,8.30
2018-03-04T22:13:25.886Z,8.93
2018-03-04T22:15:53.950Z,7.97
2018-03-04T22:18:22.043Z,8.97
2018-03-04T22:20:50.316Z,8.10
2018-03-04T22:23:18.191Z,8.57
2018-03-04T22:25:46.261Z,8.87
2018-03-04T22:28:14.232Z,8.90
2018-03-04T22:30:42.145Z,8.77
2018-03-04T22:33:10.013Z,9.10
2018-03-04T22:35:38.035Z,8.83
2018-03-04T22:38:06.025Z,9.10
2018-03-04T22:40:34.061Z,8.83
2018-03-04T22:43:02.007Z,7.50
2018-03-04T22:45:30.116Z,9.10
2018-03-04T22:47:59.282Z,9.10
2018-03-04T22:50:27.387Z,8.67
2018-03-04T22:52:56.182Z,11.93
2018-03-04T22:55:23.923Z,9.50
2018-03-04T22:57:51.679Z,8.67
2018-03-04T23:00:19.515Z,10.40
2018-03-04T23:02:47.689Z,9.10
2018-03-04T23:05:15.429Z,7.73
2018-03-04T23:07:43.117Z,8.80
2018-03-04T23:10:11.301Z,7.47
2018-03-04T23:12:39.318Z,8.70
2018-03-04T23:15:07.174Z,8.57
2018-03-04T23:17:34.934Z,8.67
2018-03-04T23:20:04.154Z,7.47
2018-03-04T23:22:32.150Z,7.40
2018-03-04T23:24:59.912Z,8.07
2018-03-04T23:27:27.608Z,8.10
2018-03-04T23:29:55.332Z,8.13
2018-03-04T23:32:23.379Z,9.57
2018-03-04T23:34:51.130Z,8.40
2018-03-04T23:37:18.795Z,7.63
2018-03-04T23:39:46.545Z,8.17
2018-03-04T23:42:14.258Z,8.67
2018-03-04T23:44:41.974Z,9.77
2018-03-04T23:47:09.712Z,11.57
2018-03-04T23:49:37.365Z,9.83
2018-03-04T23:52:05.354Z,11.40
2018-03-04T23:54:33.074Z,9.43
2018-03-04T23:57:01.059Z,8.33
2018-03-04T23:59:28.811Z,7.80
